Time;durP1;ratioP1;P1;durP2;ratioP2;P2;SDS_P1;SDS_P2;PMS_P1;PMS_P2;Temp;Humidity;BMP_temperature;BMP_pressure;BME280_temperature;BME280_humidity;BME280_pressure;Samples;Min_cycle;Max_cycle;Signal;HPM_P1;HPM_P2
2021/04/02 00:01:21;;;;;;;;;;;20.50;49.60;;;;;;4977155;28;20410;-70
2021/04/02 00:03:47;;;;;;;;;;;20.50;49.70;;;;;;4977453;28;19921;-69
2021/04/02 00:06:12;;;;;;;;;;;20.50;49.70;;;;;;4976464;28;19914;-69
2021/04/02 00:08:38;;;;;;;;;;;20.60;49.70;;;;;;4976700;28;19918;-70
2021/04/02 00:11:05;;;;;;;;;;;20.60;49.70;;;;;;4979778;28;19914;-70
2021/04/02 00:13:34;;;;;;;;;;;20.60;49.70;;;;;;4989837;28;19910;-69
2021/04/02 00:15:59;;;;;;;;;;;20.50;49.70;;;;;;4988873;28;20021;-69
2021/04/02 00:18:25;;;;;;;;;;;20.50;49.70;;;;;;4978465;28;19939;-69
2021/04/02 00:20:50;;;;;;;;;;;20.50;49.80;;;;;;4986662;28;19914;-69
2021/04/02 00:23:16;;;;;;;;;;;20.50;49.80;;;;;;4985035;28;20616;-70
2021/04/02 00:25:41;;;;;;;;;;;20.50;49.70;;;;;;4973025;28;19917;-70
2021/04/02 00:28:07;;;;;;;;;;;20.50;49.70;;;;;;4987109;28;19940;-70
2021/04/02 00:30:37;;;;;;;;;;;20.50;49.90;;;;;;4978984;28;19924;-70
2021/04/02 00:33:02;;;;;;;;;;;20.50;49.80;;;;;;4983267;28;19917;-68
2021/04/02 00:35:28;;;;;;;;;;;20.50;49.80;;;;;;5007492;28;19917;-68
2021/04/02 00:37:53;;;;;;;;;;;20.50;49.70;;;;;;4995863;28;19973;-70
2021/04/02 00:40:20;;;;;;;;;;;20.50;49.70;;;;;;4977970;28;20414;-70
2021/04/02 00:42:45;;;;;;;;;;;20.50;49.70;;;;;;4973815;28;19918;-70
2021/04/02 00:45:11;;;;;;;;;;;20.50;50.40;;;;;;4979474;28;19921;-70
2021/04/02 00:47:37;;;;;;;;;;;20.60;49.80;;;;;;4981236;28;19961;-70
2021/04/02 00:50:05;;;;;;;;;;;20.50;49.80;;;;;;4980398;28;19914;-69
2021/04/02 00:52:30;;;;;;;;;;;20.50;49.80;;;;;;4982531;28;20013;-70
2021/04/02 00:54:55;;;;;;;;;;;20.50;49.80;;;;;;4977220;28;20009;-70
2021/04/02 00:57:21;;;;;;;;;;;20.50;49.70;;;;;;4972765;28;19914;-69
2021/04/02 00:59:46;;;;;;;;;;;20.50;49.70;;;;;;4979132;28;19922;-69
2021/04/02 01:02:12;;;;;;;;;;;20.50;49.70;;;;;;4980434;28;20446;-70
2021/04/02 01:04:37;;;;;;;;;;;20.50;49.70;;;;;;4985027;28;19913;-68
2021/04/02 01:07:03;;;;;;;;;;;20.50;49.60;;;;;;4976946;28;19914;-69
2021/04/02 01:09:28;;;;;;;;;;;20.50;49.70;;;;;;4977971;28;20077;-70
2021/04/02 01:11:54;;;;;;;;;;;20.50;49.70;;;;;;4973962;28;19926;-70
2021/04/02 01:14:19;;;;;;;;;;;20.50;49.70;;;;;;4981849;28;19922;-70
2021/04/02 01:16:44;;;;;;;;;;;20.50;49.70;;;;;;4980743;28;19921;-70
2021/04/02 01:19:29;;;;;;;;;;;20.50;49.70;;;;;;4981071;28;19913;-70
2021/04/02 01:21:58;;;;;;;;;;;20.50;50.30;;;;;;4982337;28;20421;-70
2021/04/02 01:24:23;;;;;;;;;;;20.50;49.70;;;;;;4986036;28;20402;-69
2021/04/02 01:26:49;;;;;;;;;;;20.50;49.60;;;;;;4982025;28;19921;-70
2021/04/02 01:29:22;;;;;;;;;;;20.60;49.60;;;;;;4984108;28;19914;-69
2021/04/02 01:31:48;;;;;;;;;;;20.60;49.50;;;;;;4975352;28;19922;-70
2021/04/02 01:34:14;;;;;;;;;;;20.60;49.60;;;;;;4980217;28;19921;-69
2021/04/02 01:36:40;;;;;;;;;;;20.50;49.60;;;;;;4973277;28;20318;-68
2021/04/02 01:39:06;;;;;;;;;;;20.50;49.50;;;;;;5007235;28;19928;-68
2021/04/02 01:41:32;;;;;;;;;;;20.50;49.60;;;;;;5007532;28;20473;-68
2021/04/02 01:43:58;;;;;;;;;;;20.50;49.60;;;;;;5000951;28;19910;-69
2021/04/02 01:46:23;;;;;;;;;;;20.50;49.60;;;;;;4971509;28;19922;-69
2021/04/02 01:48:51;;;;;;;;;;;20.50;49.60;;;;;;4975843;28;19914;-69
2021/04/02 01:51:16;;;;;;;;;;;20.50;49.60;;;;;;4973540;28;19926;-69
2021/04/02 01:53:45;;;;;;;;;;;20.50;49.50;;;;;;4971657;28;19914;-70
2021/04/02 01:56:11;;;;;;;;;;;20.50;49.50;;;;;;4980213;28;19917;-69
2021/04/02 01:58:37;;;;;;;;;;;20.50;49.50;;;;;;4980987;28;19922;-69
2021/04/02 02:01:03;;;;;;;;;;;20.50;49.50;;;;;;4987529;28;19921;-69
2021/04/02 02:03:29;;;;;;;;;;;20.50;49.50;;;;;;4982356;28;19914;-69
2021/04/02 02:05:54;;;;;;;;;;;20.50;49.50;;;;;;4975661;28;19922;-69
2021/04/02 02:08:20;;;;;;;;;;;20.50;49.50;;;;;;4973852;28;19914;-69
2021/04/02 02:10:45;;;;;;;;;;;20.50;49.50;;;;;;4980934;28;19928;-68
2021/04/02 02:13:11;;;;;;;;;;;20.50;49.50;;;;;;4986643;28;20640;-68
2021/04/02 02:15:37;;;;;;;;;;;20.50;49.50;;;;;;4976327;28;20004;-70
2021/04/02 02:18:04;;;;;;;;;;;20.50;49.50;;;;;;4987325;28;22112;-70
2021/04/02 02:20:29;;;;;;;;;;;20.50;49.40;;;;;;4984999;28;19952;-70
2021/04/02 02:22:55;;;;;;;;;;;20.50;49.40;;;;;;4975458;28;19961;-70
2021/04/02 02:25:21;;;;;;;;;;;20.50;49.50;;;;;;4981400;28;19914;-70
2021/04/02 02:27:46;;;;;;;;;;;20.50;49.50;;;;;;4980171;28;19921;-69
2021/04/02 02:30:16;;;;;;;;;;;20.50;49.50;;;;;;4974782;28;20260;-70
2021/04/02 02:32:41;;;;;;;;;;;20.50;49.50;;;;;;4973924;28;20021;-70
2021/04/02 02:35:07;;;;;;;;;;;20.50;49.50;;;;;;4982537;28;20000;-70
2021/04/02 02:37:33;;;;;;;;;;;20.50;49.50;;;;;;4975265;28;20372;-69
2021/04/02 02:39:58;;;;;;;;;;;20.50;49.40;;;;;;4969140;28;19960;-69
2021/04/02 02:42:24;;;;;;;;;;;20.50;49.40;;;;;;4974725;28;19921;-69
2021/04/02 02:44:49;;;;;;;;;;;20.50;49.30;;;;;;4978392;28;19920;-69
2021/04/02 02:47:15;;;;;;;;;;;20.50;49.30;;;;;;4974175;28;19921;-70
2021/04/02 02:49:40;;;;;;;;;;;20.50;49.40;;;;;;4969955;28;19917;-70
2021/04/02 02:52:06;;;;;;;;;;;20.50;49.30;;;;;;4976765;28;19933;-69
2021/04/02 02:54:31;;;;;;;;;;;20.50;49.40;;;;;;4977258;28;20425;-69
2021/04/02 02:56:57;;;;;;;;;;;20.50;49.30;;;;;;4975081;28;19925;-70
2021/04/02 02:59:23;;;;;;;;;;;20.50;49.40;;;;;;4961431;28;19918;-70
2021/04/02 03:01:49;;;;;;;;;;;20.40;49.30;;;;;;4962782;28;19976;-70
2021/04/02 03:04:15;;;;;;;;;;;20.40;49.30;;;;;;4974534;28;19921;-70
2021/04/02 03:06:40;;;;;;;;;;;20.40;49.20;;;;;;4976576;28;19914;-70
2021/04/02 03:09:06;;;;;;;;;;;20.50;49.30;;;;;;4969340;28;20379;-69
2021/04/02 03:11:32;;;;;;;;;;;20.50;49.30;;;;;;4974312;28;19929;-70
2021/04/02 03:13:57;;;;;;;;;;;20.50;49.30;;;;;;4977897;28;19913;-70
2021/04/02 03:16:23;;;;;;;;;;;20.50;49.30;;;;;;4970715;28;19925;-68
2021/04/02 03:18:49;;;;;;;;;;;20.40;49.20;;;;;;4977949;28;19918;-69
2021/04/02 03:21:15;;;;;;;;;;;20.50;49.30;;;;;;4977476;28;20272;-68
2021/04/02 03:23:41;;;;;;;;;;;20.40;49.20;;;;;;4973430;28;19921;-70
2021/04/02 03:26:06;;;;;;;;;;;20.40;49.20;;;;;;4965669;28;20312;-70
2021/04/02 03:28:31;;;;;;;;;;;20.40;49.10;;;;;;4976223;28;19944;-70
2021/04/02 03:30:57;;;;;;;;;;;20.40;49.20;;;;;;4972354;28;19914;-68
2021/04/02 03:33:29;;;;;;;;;;;20.40;49.20;;;;;;4976455;28;19918;-71
2021/04/02 03:35:57;;;;;;;;;;;20.40;49.30;;;;;;4975848;28;20612;-71
2021/04/02 03:38:22;;;;;;;;;;;20.40;49.20;;;;;;4975641;28;19941;-71
2021/04/02 03:40:48;;;;;;;;;;;20.40;49.20;;;;;;4971050;28;20525;-68
2021/04/02 03:43:14;;;;;;;;;;;20.40;49.10;;;;;;4959081;28;19921;-70
2021/04/02 03:45:40;;;;;;;;;;;20.40;49.10;;;;;;4963839;28;19914;-70
2021/04/02 03:48:05;;;;;;;;;;;20.40;49.10;;;;;;4978822;28;20009;-70
2021/04/02 03:50:32;;;;;;;;;;;20.40;49.20;;;;;;4970905;28;19918;-71
2021/04/02 03:53:06;;;;;;;;;;;20.40;49.20;;;;;;4975324;28;19914;-70
2021/04/02 03:55:31;;;;;;;;;;;20.40;49.20;;;;;;4977122;28;19918;-70
2021/04/02 03:57:57;;;;;;;;;;;20.30;49.10;;;;;;4973863;28;20004;-71
2021/04/02 04:00:35;;;;;;;;;;;20.40;49.20;;;;;;4974808;28;19913;-71
2021/04/02 04:03:01;;;;;;;;;;;20.30;49.10;;;;;;4976942;28;20272;-67
2021/04/02 04:05:26;;;;;;;;;;;20.40;49.20;;;;;;4973674;28;20383;-69
2021/04/02 04:07:52;;;;;;;;;;;20.40;49.10;;;;;;4975021;28;19935;-70
2021/04/02 04:10:18;;;;;;;;;;;20.30;49.10;;;;;;4974165;28;19961;-70
2021/04/02 04:12:43;;;;;;;;;;;20.40;49.20;;;;;;4979951;28;19913;-69
2021/04/02 04:15:10;;;;;;;;;;;20.30;49.10;;;;;;4982916;28;20016;-70
2021/04/02 04:17:35;;;;;;;;;;;20.30;49.10;;;;;;4971926;28;19914;-70
2021/04/02 04:20:00;;;;;;;;;;;20.30;49.10;;;;;;4970815;28;19922;-70
2021/04/02 04:22:26;;;;;;;;;;;20.30;49.10;;;;;;4973500;28;19961;-69
2021/04/02 04:24:51;;;;;;;;;;;20.30;49.10;;;;;;4979967;28;19914;-69
2021/04/02 04:27:17;;;;;;;;;;;20.30;49.20;;;;;;4968504;28;19914;-68
2021/04/02 04:29:44;;;;;;;;;;;20.30;49.10;;;;;;4972103;28;19968;-69
2021/04/02 04:32:10;;;;;;;;;;;20.30;49.10;;;;;;4982134;28;19918;-70
2021/04/02 04:34:36;;;;;;;;;;;20.30;49.20;;;;;;4972882;28;21952;-70
2021/04/02 04:37:01;;;;;;;;;;;20.30;49.10;;;;;;4976426;28;19995;-70
2021/04/02 04:39:27;;;;;;;;;;;20.30;49.10;;;;;;4972397;28;19918;-69
2021/04/02 04:41:52;;;;;;;;;;;20.30;49.10;;;;;;4975503;28;19964;-70
2021/04/02 04:44:17;;;;;;;;;;;20.30;49.10;;;;;;4972102;28;19922;-70
2021/04/02 04:46:43;;;;;;;;;;;20.30;49.10;;;;;;4960393;28;19921;-68
2021/04/02 04:49:08;;;;;;;;;;;20.20;49.10;;;;;;4975950;28;20587;-70
2021/04/02 04:51:34;;;;;;;;;;;20.30;49.10;;;;;;4975342;28;19914;-69
2021/04/02 04:53:59;;;;;;;;;;;20.20;49.10;;;;;;4972252;28;19914;-68
2021/04/02 04:56:26;;;;;;;;;;;20.20;49.10;;;;;;4977669;28;19918;-70
2021/04/02 04:58:52;;;;;;;;;;;20.30;49.10;;;;;;4973858;28;19921;-69
2021/04/02 05:01:17;;;;;;;;;;;20.30;49.10;;;;;;4972558;28;19918;-69
2021/04/02 05:03:43;;;;;;;;;;;20.20;49.10;;;;;;4971761;28;19914;-71
2021/04/02 05:06:08;;;;;;;;;;;20.20;49.10;;;;;;4973843;28;19979;-70
2021/04/02 05:08:35;;;;;;;;;;;20.20;49.10;;;;;;4969491;28;19924;-70
2021/04/02 05:11:01;;;;;;;;;;;20.20;49.10;;;;;;4974624;28;19949;-70
2021/04/02 05:13:27;;;;;;;;;;;20.20;49.10;;;;;;4966236;28;19925;-71
2021/04/02 05:15:52;;;;;;;;;;;20.20;49.10;;;;;;4974950;28;19918;-70
2021/04/02 05:18:18;;;;;;;;;;;20.20;49.10;;;;;;4971520;28;20410;-70
2021/04/02 05:20:44;;;;;;;;;;;20.20;49.10;;;;;;4971723;28;19914;-71
2021/04/02 05:23:09;;;;;;;;;;;20.20;49.10;;;;;;4976768;28;19921;-69
2021/04/02 05:25:35;;;;;;;;;;;20.20;49.10;;;;;;4972224;28;19915;-69
2021/04/02 05:28:00;;;;;;;;;;;20.20;49.10;;;;;;4972876;28;19956;-68
2021/04/02 05:30:26;;;;;;;;;;;20.20;49.10;;;;;;4978262;28;19913;-69
2021/04/02 05:32:52;;;;;;;;;;;20.20;49.10;;;;;;4975165;28;19921;-70
2021/04/02 05:35:17;;;;;;;;;;;20.10;49.00;;;;;;4968630;28;19921;-70
2021/04/02 05:37:43;;;;;;;;;;;20.20;49.10;;;;;;4976073;28;19917;-70
2021/04/02 05:40:08;;;;;;;;;;;20.20;49.10;;;;;;4980471;28;19984;-70
2021/04/02 05:42:35;;;;;;;;;;;20.10;49.00;;;;;;4979433;28;19925;-69
2021/04/02 05:45:00;;;;;;;;;;;20.20;49.10;;;;;;4980295;28;20388;-70
2021/04/02 05:47:26;;;;;;;;;;;20.10;49.00;;;;;;4973065;28;19921;-70
2021/04/02 05:49:51;;;;;;;;;;;20.10;49.10;;;;;;4975307;28;19913;-70
2021/04/02 05:52:17;;;;;;;;;;;20.10;49.00;;;;;;4997041;23;19987;-60
2021/04/02 05:54:44;;;;;;;;;;;20.10;49.10;;;;;;5018636;28;20466;-57
2021/04/02 05:57:09;;;;;;;;;;;20.10;49.00;;;;;;5022502;28;19955;-58
2021/04/02 05:59:35;;;;;;;;;;;20.10;49.10;;;;;;5025179;28;20294;-59
2021/04/02 06:02:01;;;;;;;;;;;20.10;49.00;;;;;;5026147;28;19913;-59
2021/04/02 06:04:26;;;;;;;;;;;20.10;49.10;;;;;;5015993;28;19923;-59
2021/04/02 06:06:52;;;;;;;;;;;20.10;49.20;;;;;;5005610;28;19914;-59
2021/04/02 06:09:17;;;;;;;;;;;20.10;49.20;;;;;;5029837;28;20333;-57
2021/04/02 06:11:43;;;;;;;;;;;20.10;49.20;;;;;;5016939;28;19921;-58
2021/04/02 06:14:08;;;;;;;;;;;20.10;49.30;;;;;;5009850;28;19968;-59
2021/04/02 06:16:34;;;;;;;;;;;20.10;49.30;;;;;;5019556;28;20371;-59
2021/04/02 06:19:06;;;;;;;;;;;20.10;49.40;;;;;;5024167;28;19991;-58
2021/04/02 06:21:31;;;;;;;;;;;20.10;49.40;;;;;;5021839;28;19917;-58
2021/04/02 06:23:56;;;;;;;;;;;20.10;49.70;;;;;;5010311;28;19928;-58
2021/04/02 06:26:22;;;;;;;;;;;20.10;49.80;;;;;;5004355;28;19913;-58
2021/04/02 06:28:47;;;;;;;;;;;20.00;49.90;;;;;;5003884;28;20414;-58
2021/04/02 06:31:16;;;;;;;;;;;20.10;49.80;;;;;;5023428;28;19921;-58
2021/04/02 06:33:42;;;;;;;;;;;20.10;50.00;;;;;;5012859;28;19913;-59
2021/04/02 06:36:26;;;;;;;;;;;20.10;50.00;;;;;;5023375;28;20429;-59
2021/04/02 06:39:03;;;;;;;;;;;20.00;50.00;;;;;;5023683;28;20003;-59
2021/04/02 06:41:29;;;;;;;;;;;20.00;50.10;;;;;;5022966;28;19921;-58
2021/04/02 06:43:55;;;;;;;;;;;20.00;50.20;;;;;;5023031;28;19917;-59
2021/04/02 06:46:23;;;;;;;;;;;20.00;50.20;;;;;;5006860;28;19920;-59
2021/04/02 06:48:55;;;;;;;;;;;20.00;50.30;;;;;;5003543;28;19917;-59
2021/04/02 06:51:21;;;;;;;;;;;20.00;50.20;;;;;;5003176;28;19913;-58
2021/04/02 06:53:47;;;;;;;;;;;20.00;50.10;;;;;;5003835;28;19983;-59
2021/04/02 06:56:13;;;;;;;;;;;20.00;50.10;;;;;;5015135;28;20401;-59
2021/04/02 06:58:38;;;;;;;;;;;20.00;50.00;;;;;;5038473;23;20716;-69
2021/04/02 07:01:04;;;;;;;;;;;20.00;49.90;;;;;;5022769;28;19921;-66
2021/04/02 07:03:30;;;;;;;;;;;20.00;49.90;;;;;;5016134;28;19968;-64
2021/04/02 07:05:55;;;;;;;;;;;20.00;49.80;;;;;;5011067;28;19913;-66
2021/04/02 07:08:21;;;;;;;;;;;20.00;49.80;;;;;;5020123;28;19920;-65
2021/04/02 07:10:47;;;;;;;;;;;20.00;49.80;;;;;;5012092;28;19927;-65
2021/04/02 07:13:12;;;;;;;;;;;20.00;49.80;;;;;;5013903;28;19913;-65
2021/04/02 07:15:38;;;;;;;;;;;20.00;49.80;;;;;;5008474;28;19921;-64
2021/04/02 07:18:04;;;;;;;;;;;20.00;49.70;;;;;;5015338;28;19949;-66
2021/04/02 07:20:30;;;;;;;;;;;20.00;49.70;;;;;;5016566;28;19913;-68
2021/04/02 07:22:56;;;;;;;;;;;20.00;49.70;;;;;;5014805;28;19920;-66
2021/04/02 07:25:21;;;;;;;;;;;20.00;50.10;;;;;;5015288;28;19913;-67
2021/04/02 07:27:46;;;;;;;;;;;20.00;50.30;;;;;;5012928;28;19921;-66
2021/04/02 07:30:12;;;;;;;;;;;20.00;51.00;;;;;;5025402;28;19944;-65
2021/04/02 07:32:38;;;;;;;;;;;20.00;50.50;;;;;;5011631;28;19940;-66
2021/04/02 07:35:04;;;;;;;;;;;19.90;50.70;;;;;;5014389;28;19983;-66
2021/04/02 07:37:38;;;;;;;;;;;19.90;50.80;;;;;;5014419;28;20328;-66
2021/04/02 07:40:04;;;;;;;;;;;19.90;50.90;;;;;;5018058;28;20336;-68
2021/04/02 07:42:30;;;;;;;;;;;20.00;51.10;;;;;;5017613;28;19917;-67
2021/04/02 07:44:55;;;;;;;;;;;19.90;51.10;;;;;;5014375;28;19913;-67
2021/04/02 07:47:22;;;;;;;;;;;20.00;51.10;;;;;;5012248;28;19967;-66
2021/04/02 07:49:48;;;;;;;;;;;19.90;51.10;;;;;;5016209;28;20011;-66
2021/04/02 07:52:13;;;;;;;;;;;20.00;51.30;;;;;;5011957;28;20004;-66
2021/04/02 07:54:41;;;;;;;;;;;19.90;51.20;;;;;;5031576;28;19917;-66
2021/04/02 07:57:16;;;;;;;;;;;19.90;51.30;;;;;;5012278;28;19920;-67
2021/04/02 07:59:41;;;;;;;;;;;19.90;51.30;;;;;;5015493;28;20260;-67
2021/04/02 08:02:11;;;;;;;;;;;19.90;51.20;;;;;;5014056;28;20020;-67
2021/04/02 08:04:49;;;;;;;;;;;19.90;51.00;;;;;;5014471;28;19928;-67
2021/04/02 08:07:15;;;;;;;;;;;19.90;50.90;;;;;;5013388;28;20415;-63
2021/04/02 08:09:41;;;;;;;;;;;19.90;51.00;;;;;;5013461;28;19917;-67
2021/04/02 08:12:07;;;;;;;;;;;19.90;51.00;;;;;;5027012;28;19921;-65
2021/04/02 08:14:35;;;;;;;;;;;19.90;51.20;;;;;;5020611;28;20398;-66
2021/04/02 08:17:01;;;;;;;;;;;19.90;51.40;;;;;;5013330;28;19944;-67
2021/04/02 08:19:27;;;;;;;;;;;19.80;51.50;;;;;;5016449;28;20376;-67
2021/04/02 08:21:56;;;;;;;;;;;19.80;51.80;;;;;;5014500;28;20540;-68
2021/04/02 08:24:23;;;;;;;;;;;19.80;52.30;;;;;;5012651;28;19914;-67
2021/04/02 08:26:49;;;;;;;;;;;19.80;52.60;;;;;;5012459;28;19956;-66
2021/04/02 08:29:14;;;;;;;;;;;19.80;53.40;;;;;;5018773;28;19971;-66
2021/04/02 08:31:41;;;;;;;;;;;19.80;53.60;;;;;;5016623;28;19913;-66
2021/04/02 08:34:06;;;;;;;;;;;19.80;53.80;;;;;;5020729;28;20376;-67
2021/04/02 08:36:32;;;;;;;;;;;19.80;54.20;;;;;;5011622;28;19924;-66
2021/04/02 08:38:57;;;;;;;;;;;19.90;54.00;;;;;;5013322;28;19920;-67
2021/04/02 08:41:23;;;;;;;;;;;19.80;54.40;;;;;;5020000;28;19917;-68
2021/04/02 08:43:49;;;;;;;;;;;19.80;54.30;;;;;;5012202;28;19920;-68
2021/04/02 08:46:15;;;;;;;;;;;19.80;54.30;;;;;;5010590;28;19913;-68
2021/04/02 08:48:40;;;;;;;;;;;19.80;54.10;;;;;;5012286;28;19956;-67
2021/04/02 08:51:05;;;;;;;;;;;19.80;54.20;;;;;;5012283;28;20011;-66
2021/04/02 08:53:40;;;;;;;;;;;19.80;54.20;;;;;;5014923;28;19933;-67
2021/04/02 08:56:06;;;;;;;;;;;19.80;53.90;;;;;;5008140;28;20307;-65
2021/04/02 08:58:32;;;;;;;;;;;19.80;53.60;;;;;;5013541;28;19917;-67
2021/04/02 09:00:57;;;;;;;;;;;19.90;53.40;;;;;;5013540;28;19979;-65
2021/04/02 09:03:22;;;;;;;;;;;19.80;53.30;;;;;;5010979;28;19913;-66
2021/04/02 09:05:48;;;;;;;;;;;19.80;53.40;;;;;;5012356;28;19936;-66
2021/04/02 09:08:13;;;;;;;;;;;19.80;53.70;;;;;;5017042;28;19913;-66
2021/04/02 09:10:39;;;;;;;;;;;19.80;54.10;;;;;;5015347;28;19917;-66
2021/04/02 09:13:04;;;;;;;;;;;19.80;54.60;;;;;;5012258;28;19914;-66
2021/04/02 09:15:31;;;;;;;;;;;19.90;54.90;;;;;;5016453;28;20128;-67
2021/04/02 09:18:15;;;;;;;;;;;19.80;55.10;;;;;;5008132;28;19913;-67
2021/04/02 09:20:40;;;;;;;;;;;19.80;55.10;;;;;;5014077;28;19921;-66
2021/04/02 09:23:07;;;;;;;;;;;19.80;54.90;;;;;;5011998;28;20062;-64
2021/04/02 09:25:32;;;;;;;;;;;19.90;54.50;;;;;;5019892;28;20287;-67
2021/04/02 09:28:05;;;;;;;;;;;19.90;54.30;;;;;;5012212;28;19943;-67
2021/04/02 09:30:30;;;;;;;;;;;19.90;54.00;;;;;;5018284;28;20506;-67
2021/04/02 09:32:55;;;;;;;;;;;19.90;54.10;;;;;;5035511;28;19913;-67
2021/04/02 09:35:21;;;;;;;;;;;19.90;54.10;;;;;;5020571;28;19921;-66
2021/04/02 09:37:47;;;;;;;;;;;19.90;54.60;;;;;;5014184;28;19913;-65
2021/04/02 09:40:12;;;;;;;;;;;19.90;53.70;;;;;;5021168;28;19925;-66
2021/04/02 09:42:38;;;;;;;;;;;19.90;53.30;;;;;;5017715;28;20362;-67
2021/04/02 09:45:04;;;;;;;;;;;19.90;53.00;;;;;;5016323;28;20012;-67
2021/04/02 09:47:30;;;;;;;;;;;19.90;52.80;;;;;;5018187;28;19913;-66
2021/04/02 09:49:56;;;;;;;;;;;19.90;52.70;;;;;;5014963;28;19920;-67
2021/04/02 09:52:21;;;;;;;;;;;19.90;52.50;;;;;;5024155;28;19914;-66
2021/04/02 09:54:47;;;;;;;;;;;19.80;52.40;;;;;;5008072;28;19913;-66
2021/04/02 09:57:12;;;;;;;;;;;19.90;52.30;;;;;;5014638;28;19936;-66
2021/04/02 09:59:37;;;;;;;;;;;19.90;52.10;;;;;;5015236;28;19913;-67
2021/04/02 10:02:03;;;;;;;;;;;19.90;52.00;;;;;;5017082;28;19963;-66
2021/04/02 10:04:29;;;;;;;;;;;19.80;52.20;;;;;;5017837;28;20321;-68
2021/04/02 10:06:54;;;;;;;;;;;19.90;52.50;;;;;;5016169;28;19920;-65
2021/04/02 10:09:20;;;;;;;;;;;19.90;52.60;;;;;;5017569;28;20391;-67
2021/04/02 10:11:46;;;;;;;;;;;19.80;52.80;;;;;;5021094;28;19917;-64
2021/04/02 10:14:11;;;;;;;;;;;19.90;53.00;;;;;;5034617;28;19921;-65
2021/04/02 10:16:37;;;;;;;;;;;19.90;53.00;;;;;;5015113;28;20470;-65
2021/04/02 10:19:05;;;;;;;;;;;19.80;53.00;;;;;;5009707;28;19917;-65
2021/04/02 10:21:31;;;;;;;;;;;19.80;53.20;;;;;;5012387;28;20392;-65
2021/04/02 10:23:57;;;;;;;;;;;19.80;53.10;;;;;;5015736;28;19914;-66
2021/04/02 10:26:22;;;;;;;;;;;19.80;53.20;;;;;;5015109;28;19936;-66
2021/04/02 10:28:47;;;;;;;;;;;19.80;53.10;;;;;;5019492;28;19914;-66
2021/04/02 10:31:14;;;;;;;;;;;19.90;53.00;;;;;;5030068;28;19921;-65
2021/04/02 10:33:39;;;;;;;;;;;19.80;52.70;;;;;;5014738;28;19952;-65
2021/04/02 10:36:05;;;;;;;;;;;19.80;52.50;;;;;;5016788;28;19940;-65
2021/04/02 10:38:30;;;;;;;;;;;19.90;52.50;;;;;;5024142;28;20209;-64
2021/04/02 10:40:56;;;;;;;;;;;19.80;52.20;;;;;;5024736;28;19919;-65
2021/04/02 10:43:21;;;;;;;;;;;19.80;52.10;;;;;;5011417;28;20316;-66
2021/04/02 10:45:47;;;;;;;;;;;19.90;51.90;;;;;;5021220;28;19913;-65
2021/04/02 10:48:12;;;;;;;;;;;19.80;51.70;;;;;;5017492;28;19967;-66
2021/04/02 10:50:38;;;;;;;;;;;19.80;51.70;;;;;;5010516;28;19943;-66
2021/04/02 10:53:04;;;;;;;;;;;19.90;51.70;;;;;;5022648;28;19967;-64
2021/04/02 10:55:29;;;;;;;;;;;19.80;51.70;;;;;;5011782;28;19917;-65
2021/04/02 10:57:55;;;;;;;;;;;19.80;51.70;;;;;;5017318;28;19917;-66
2021/04/02 11:00:20;;;;;;;;;;;19.80;51.60;;;;;;5027146;28;19925;-65
2021/04/02 11:02:46;;;;;;;;;;;19.80;51.60;;;;;;5019189;28;19917;-65
2021/04/02 11:05:11;;;;;;;;;;;19.80;51.50;;;;;;5014378;28;19913;-64
2021/04/02 11:07:37;;;;;;;;;;;19.80;51.50;;;;;;5018703;28;19913;-65
2021/04/02 11:10:06;;;;;;;;;;;19.80;51.40;;;;;;5015848;28;19913;-64
2021/04/02 11:12:32;;;;;;;;;;;19.80;51.50;;;;;;5014326;28;19913;-65
2021/04/02 11:14:57;;;;;;;;;;;19.80;51.40;;;;;;5019373;28;20562;-66
2021/04/02 11:17:23;;;;;;;;;;;19.80;51.50;;;;;;5015683;28;20381;-67
2021/04/02 11:19:48;;;;;;;;;;;19.80;51.50;;;;;;5016021;28;20004;-67
2021/04/02 11:22:14;;;;;;;;;;;19.80;51.60;;;;;;5014971;28;20560;-68
2021/04/02 11:24:39;;;;;;;;;;;19.80;51.60;;;;;;5017809;28;19913;-68
2021/04/02 11:27:05;;;;;;;;;;;19.80;51.50;;;;;;5024904;28;19926;-67
2021/04/02 11:29:30;;;;;;;;;;;19.80;51.50;;;;;;5015421;28;19920;-67
2021/04/02 11:31:56;;;;;;;;;;;19.80;51.40;;;;;;5016512;28;20654;-68
2021/04/02 11:34:21;;;;;;;;;;;19.80;51.30;;;;;;5022087;28;19917;-65
2021/04/02 11:36:47;;;;;;;;;;;19.80;51.30;;;;;;5015217;28;19923;-67
2021/04/02 11:39:12;;;;;;;;;;;19.80;51.30;;;;;;5011746;28;20407;-65
2021/04/02 11:41:37;;;;;;;;;;;19.80;51.20;;;;;;5013577;28;19913;-65
2021/04/02 11:44:03;;;;;;;;;;;19.70;51.10;;;;;;5015009;28;19920;-66
2021/04/02 11:46:29;;;;;;;;;;;19.80;51.10;;;;;;5014498;28;19996;-65
2021/04/02 11:48:54;;;;;;;;;;;19.80;51.10;;;;;;5016533;28;19917;-65
2021/04/02 11:51:20;;;;;;;;;;;19.70;50.90;;;;;;5014897;28;19913;-66
2021/04/02 11:53:45;;;;;;;;;;;19.80;51.00;;;;;;5013368;28;19917;-65
2021/04/02 11:56:10;;;;;;;;;;;19.70;50.90;;;;;;5015099;28;19917;-65
2021/04/02 11:58:36;;;;;;;;;;;19.80;51.00;;;;;;5016865;28;19960;-65
2021/04/02 12:01:02;;;;;;;;;;;19.70;50.90;;;;;;5002349;28;20610;-66
2021/04/02 12:03:27;;;;;;;;;;;19.80;50.90;;;;;;5013649;28;20008;-67
2021/04/02 12:05:52;;;;;;;;;;;19.70;51.60;;;;;;5014343;28;20511;-67
2021/04/02 12:08:18;;;;;;;;;;;19.70;52.00;;;;;;5012681;28;19975;-68
2021/04/02 12:10:44;;;;;;;;;;;19.70;52.10;;;;;;5020200;28;19927;-67
2021/04/02 12:13:10;;;;;;;;;;;19.70;52.30;;;;;;5012742;28;19917;-67
2021/04/02 12:15:35;;;;;;;;;;;19.70;52.40;;;;;;5015864;28;19924;-68
2021/04/02 12:18:00;;;;;;;;;;;19.80;52.50;;;;;;5014068;28;19917;-67
2021/04/02 12:20:26;;;;;;;;;;;19.70;52.60;;;;;;5011918;28;19917;-67
2021/04/02 12:22:51;;;;;;;;;;;19.70;52.60;;;;;;5016704;28;19964;-68
2021/04/02 12:25:17;;;;;;;;;;;19.80;52.70;;;;;;5014537;28;20450;-68
2021/04/02 12:27:42;;;;;;;;;;;19.70;52.70;;;;;;5015964;28;19971;-67
2021/04/02 12:30:12;;;;;;;;;;;19.70;52.90;;;;;;5012790;28;19957;-68
2021/04/02 12:32:37;;;;;;;;;;;19.70;53.50;;;;;;5018089;28;19913;-68
2021/04/02 12:35:03;;;;;;;;;;;19.70;52.70;;;;;;5007437;28;19917;-68
2021/04/02 12:37:29;;;;;;;;;;;19.70;52.60;;;;;;5020430;28;20296;-67
2021/04/02 12:39:55;;;;;;;;;;;19.70;52.70;;;;;;5012667;28;19913;-68
2021/04/02 12:42:20;;;;;;;;;;;19.70;52.80;;;;;;5012906;28;20331;-68
2021/04/02 12:44:46;;;;;;;;;;;19.60;53.50;;;;;;5019938;28;19917;-67
2021/04/02 12:47:11;;;;;;;;;;;19.70;52.90;;;;;;5006679;28;19968;-67
2021/04/02 12:49:36;;;;;;;;;;;19.70;52.90;;;;;;5015982;28;20446;-67
2021/04/02 12:52:02;;;;;;;;;;;19.70;52.90;;;;;;5016549;28;19913;-66
2021/04/02 12:54:28;;;;;;;;;;;19.70;52.90;;;;;;5012916;28;19921;-66
2021/04/02 12:56:53;;;;;;;;;;;19.70;52.90;;;;;;5013295;28;19921;-67
2021/04/02 12:59:18;;;;;;;;;;;19.70;52.80;;;;;;5012571;28;19931;-65
2021/04/02 13:01:44;;;;;;;;;;;19.70;52.80;;;;;;5011436;28;19935;-68
2021/04/02 13:04:09;;;;;;;;;;;19.70;52.70;;;;;;5014767;28;19920;-67
2021/04/02 13:06:35;;;;;;;;;;;19.60;52.70;;;;;;5011472;28;20679;-68
2021/04/02 13:09:02;;;;;;;;;;;19.70;52.60;;;;;;5018251;28;19920;-67
2021/04/02 13:11:28;;;;;;;;;;;19.60;52.50;;;;;;5014709;28;19913;-68
2021/04/02 13:13:53;;;;;;;;;;;19.60;52.40;;;;;;5015068;28;19920;-67
2021/04/02 13:16:19;;;;;;;;;;;19.60;52.40;;;;;;5029159;28;19941;-67
2021/04/02 13:18:44;;;;;;;;;;;19.60;52.40;;;;;;5018621;28;19986;-67
2021/04/02 13:21:10;;;;;;;;;;;19.60;52.30;;;;;;5019364;28;19936;-69
2021/04/02 13:23:35;;;;;;;;;;;19.60;52.20;;;;;;5018546;28;20434;-66
2021/04/02 13:26:00;;;;;;;;;;;19.60;52.20;;;;;;5014952;28;20299;-67
2021/04/02 13:28:26;;;;;;;;;;;19.60;52.10;;;;;;5014504;28;20368;-67
2021/04/02 13:30:51;;;;;;;;;;;19.60;52.10;;;;;;5020836;28;19935;-66
2021/04/02 13:33:17;;;;;;;;;;;19.60;52.10;;;;;;5010499;28;20406;-66
2021/04/02 13:35:43;;;;;;;;;;;19.60;52.20;;;;;;5018454;28;19949;-66
2021/04/02 13:38:08;;;;;;;;;;;19.60;52.10;;;;;;5018124;28;19921;-66
2021/04/02 13:40:34;;;;;;;;;;;19.60;52.10;;;;;;5015741;28;19921;-65
2021/04/02 13:42:59;;;;;;;;;;;19.60;52.10;;;;;;5015008;28;19936;-66
2021/04/02 13:45:25;;;;;;;;;;;19.60;52.10;;;;;;5018231;28;19936;-66
2021/04/02 13:47:50;;;;;;;;;;;19.60;52.10;;;;;;5012645;28;19960;-66
2021/04/02 13:50:16;;;;;;;;;;;19.60;52.30;;;;;;5015172;28;19917;-66
2021/04/02 13:52:41;;;;;;;;;;;19.60;52.30;;;;;;5020251;28;20312;-67
2021/04/02 13:55:07;;;;;;;;;;;19.60;52.30;;;;;;5012780;28;19960;-65
2021/04/02 13:57:33;;;;;;;;;;;19.60;52.20;;;;;;5021809;28;19923;-66
2021/04/02 13:59:58;;;;;;;;;;;19.60;52.20;;;;;;5017835;28;19920;-66
2021/04/02 14:02:24;;;;;;;;;;;19.60;52.20;;;;;;5016296;28;19913;-65
2021/04/02 14:04:51;;;;;;;;;;;19.60;52.20;;;;;;5015767;28;20358;-65
2021/04/02 14:07:16;;;;;;;;;;;19.50;52.20;;;;;;5018440;28;19921;-64
2021/04/02 14:09:42;;;;;;;;;;;19.60;52.20;;;;;;5017870;28;19917;-66